createdAt,value
2023-06-10T00:00:06.860Z,88186.00
2023-06-10T00:01:06.844Z,88184.00
2023-06-10T00:02:06.872Z,88186.00
2023-06-10T00:03:06.936Z,88188.00
2023-06-10T00:04:06.945Z,88188.00
2023-06-10T00:05:07.167Z,88186.00
2023-06-10T00:06:06.830Z,88186.00
2023-06-10T00:07:06.789Z,88188.00
2023-06-10T00:08:06.799Z,88188.00
2023-06-10T00:09:06.802Z,88190.00
2023-06-10T00:10:06.767Z,88190.00
2023-06-10T00:11:06.760Z,88190.00
2023-06-10T00:12:06.769Z,88188.00
2023-06-10T00:13:06.736Z,88188.00
2023-06-10T00:14:06.731Z,88188.00
2023-06-10T00:15:07.046Z,88182.00
2023-06-10T00:16:06.721Z,88184.00
2023-06-10T00:17:06.685Z,88182.00
2023-06-10T00:18:06.739Z,88184.00
2023-06-10T00:19:06.672Z,88182.00
2023-06-10T00:20:06.654Z,88186.00
2023-06-10T00:21:06.747Z,88186.00
2023-06-10T00:22:06.725Z,88186.00
2023-06-10T00:23:06.717Z,88184.00
2023-06-10T00:24:06.788Z,88186.00
2023-06-10T00:25:06.918Z,88186.00
2023-06-10T00:26:06.749Z,88184.00
2023-06-10T00:27:06.739Z,88186.00
2023-06-10T00:28:06.742Z,88182.00
2023-06-10T00:29:06.773Z,88184.00
2023-06-10T00:30:06.723Z,88180.00
2023-06-10T00:31:06.702Z,88180.00
2023-06-10T00:32:06.781Z,88180.00
2023-06-10T00:33:06.887Z,88182.00
2023-06-10T00:34:06.970Z,88182.00
2023-06-10T00:35:07.537Z,88182.00
2023-06-10T00:36:07.095Z,88182.00
2023-06-10T00:37:07.040Z,88182.00
2023-06-10T00:38:07.019Z,88178.00
2023-06-10T00:39:07.016Z,88178.00
2023-06-10T00:40:07.007Z,88178.00
2023-06-10T00:41:06.991Z,88178.00
2023-06-10T00:42:06.982Z,88178.00
2023-06-10T00:43:07.023Z,88178.00
2023-06-10T00:44:07.003Z,88176.00
2023-06-10T00:45:07.348Z,88174.00
2023-06-10T00:46:07.110Z,88176.00
2023-06-10T00:47:07.077Z,88176.00
2023-06-10T00:48:07.099Z,88176.00
2023-06-10T00:49:07.068Z,88176.00
2023-06-10T00:50:07.061Z,88176.00
2023-06-10T00:51:07.099Z,88172.00
2023-06-10T00:52:07.074Z,88174.00
2023-06-10T00:53:07.085Z,88172.00
2023-06-10T00:54:07.079Z,88172.00
2023-06-10T00:55:07.383Z,88169.00
2023-06-10T00:56:07.039Z,88167.00
2023-06-10T00:57:07.059Z,88167.00
2023-06-10T00:58:07.026Z,88167.00
2023-06-10T00:59:06.988Z,88165.00
2023-06-10T01:00:06.982Z,88167.00
2023-06-10T01:01:06.987Z,88161.00
2023-06-10T01:02:06.959Z,88161.00
2023-06-10T01:03:07.044Z,88161.00
2023-06-10T01:04:06.907Z,88161.00
2023-06-10T01:05:07.272Z,88163.00
2023-06-10T01:06:06.895Z,88159.00
2023-06-10T01:07:06.853Z,88161.00
2023-06-10T01:08:06.855Z,88161.00
2023-06-10T01:09:06.834Z,88161.00
2023-06-10T01:10:06.840Z,88161.00
2023-06-10T01:11:06.803Z,88159.00
2023-06-10T01:12:06.788Z,88161.00
2023-06-10T01:13:06.768Z,88161.00
2023-06-10T01:14:06.768Z,88161.00
2023-06-10T01:15:06.839Z,88161.00
2023-06-10T01:16:06.728Z,88161.00
2023-06-10T01:17:06.715Z,88163.00
2023-06-10T01:18:06.739Z,88161.00
2023-06-10T01:19:06.698Z,88161.00
2023-06-10T01:20:06.671Z,88159.00
2023-06-10T01:21:06.662Z,88157.00
2023-06-10T01:22:06.738Z,88161.00
2023-06-10T01:23:06.618Z,88163.00
2023-06-10T01:24:06.645Z,88163.00
2023-06-10T01:25:06.806Z,88163.00
2023-06-10T01:26:06.618Z,88163.00
2023-06-10T01:27:06.574Z,88161.00
2023-06-10T01:28:06.555Z,88163.00
2023-06-10T01:29:06.546Z,88163.00
2023-06-10T01:30:06.535Z,88163.00
2023-06-10T01:31:06.544Z,88163.00
2023-06-10T01:32:06.517Z,88165.00
2023-06-10T01:33:06.533Z,88163.00
2023-06-10T01:34:06.520Z,88163.00
2023-06-10T01:35:06.748Z,88163.00
2023-06-10T01:36:06.717Z,88163.00
2023-06-10T01:37:06.811Z,88165.00
2023-06-10T01:38:06.909Z,88165.00
2023-06-10T01:39:07.036Z,88163.00
2023-06-10T01:40:07.196Z,88165.00
2023-06-10T01:41:07.169Z,88161.00
2023-06-10T01:42:07.072Z,88163.00
2023-06-10T01:43:07.093Z,88161.00
2023-06-10T01:44:07.125Z,88163.00
2023-06-10T01:45:07.522Z,88163.00
2023-06-10T01:46:07.206Z,88163.00
2023-06-10T01:47:07.210Z,88161.00
2023-06-10T01:48:07.162Z,88161.00
2023-06-10T01:49:07.158Z,88163.00
2023-06-10T01:50:07.115Z,88163.00
2023-06-10T01:51:07.158Z,88163.00
2023-06-10T01:52:07.189Z,88163.00
2023-06-10T01:53:07.130Z,88165.00
2023-06-10T01:54:07.107Z,88163.00
2023-06-10T01:55:07.442Z,88163.00
2023-06-10T01:56:07.205Z,88163.00
2023-06-10T01:57:07.247Z,88163.00
2023-06-10T01:58:07.192Z,88163.00
2023-06-10T01:59:07.200Z,88165.00
2023-06-10T02:00:07.127Z,88163.00
2023-06-10T02:01:07.176Z,88159.00
2023-06-10T02:02:07.127Z,88159.00
2023-06-10T02:03:07.252Z,88157.00
2023-06-10T02:04:07.326Z,88157.00
2023-06-10T02:05:07.327Z,88155.00
2023-06-10T02:06:07.297Z,88157.00
2023-06-10T02:07:07.223Z,88157.00
2023-06-10T02:08:07.178Z,88157.00
2023-06-10T02:09:07.167Z,88159.00
2023-06-10T02:10:07.156Z,88159.00
2023-06-10T02:11:07.139Z,88155.00
2023-06-10T02:12:07.258Z,88155.00
2023-06-10T02:13:07.174Z,88163.00
2023-06-10T02:14:07.174Z,88159.00
2023-06-10T02:15:07.395Z,88157.00
2023-06-10T02:16:07.231Z,88157.00
2023-06-10T02:17:07.171Z,88157.00
2023-06-10T02:18:07.233Z,88157.00
2023-06-10T02:19:07.808Z,88155.00
2023-06-10T02:20:07.184Z,88155.00
2023-06-10T02:21:07.184Z,88155.00
2023-06-10T02:22:07.189Z,88151.00
2023-06-10T02:23:07.215Z,88155.00
2023-06-10T02:24:07.232Z,88155.00
2023-06-10T02:25:07.414Z,88155.00
2023-06-10T02:26:07.225Z,88155.00
2023-06-10T02:27:07.230Z,88155.00
2023-06-10T02:28:07.240Z,88161.00
2023-06-10T02:29:07.263Z,88157.00
2023-06-10T02:30:07.266Z,88157.00
2023-06-10T02:31:07.281Z,88159.00
2023-06-10T02:32:10.457Z,88161.00
2023-06-10T02:33:07.315Z,88159.00
2023-06-10T02:34:07.267Z,88157.00
2023-06-10T02:35:07.515Z,88157.00
2023-06-10T02:36:07.242Z,88157.00
2023-06-10T02:37:07.215Z,88151.00
2023-06-10T02:38:07.217Z,88155.00
2023-06-10T02:39:07.178Z,88155.00
2023-06-10T02:40:07.194Z,88155.00
2023-06-10T02:41:07.144Z,88153.00
2023-06-10T02:42:07.131Z,88153.00
2023-06-10T02:43:07.167Z,88151.00
2023-06-10T02:44:07.086Z,88151.00
2023-06-10T02:45:07.293Z,88151.00
2023-06-10T02:46:07.086Z,88151.00
2023-06-10T02:47:07.026Z,88151.00
2023-06-10T02:48:07.032Z,88151.00
2023-06-10T02:49:06.992Z,88153.00
2023-06-10T02:50:06.996Z,88151.00
2023-06-10T02:51:06.975Z,88155.00
2023-06-10T02:52:06.954Z,88153.00
2023-06-10T02:53:06.932Z,88153.00
2023-06-10T02:54:06.905Z,88157.00
2023-06-10T02:55:07.123Z,88157.00
2023-06-10T02:56:06.892Z,88159.00
2023-06-10T02:57:06.892Z,88159.00
2023-06-10T02:58:06.854Z,88159.00
2023-06-10T02:59:06.851Z,88159.00
2023-06-10T03:00:06.843Z,88159.00
2023-06-10T03:01:06.848Z,88161.00
2023-06-10T03:02:06.818Z,88161.00
2023-06-10T03:03:06.852Z,88161.00
2023-06-10T03:04:06.865Z,88159.00
2023-06-10T03:05:07.158Z,88161.00
2023-06-10T03:06:06.750Z,88157.00
2023-06-10T03:07:06.760Z,88155.00
2023-06-10T03:08:06.787Z,88157.00
2023-06-10T03:09:06.800Z,88161.00
2023-06-10T03:10:06.826Z,88159.00
2023-06-10T03:11:06.854Z,88161.00
2023-06-10T03:12:06.858Z,88161.00
2023-06-10T03:13:06.882Z,88163.00
2023-06-10T03:14:06.904Z,88159.00
2023-06-10T03:15:07.088Z,88159.00
2023-06-10T03:16:06.979Z,88159.00
2023-06-10T03:17:06.962Z,88159.00
2023-06-10T03:18:07.019Z,88159.00
2023-06-10T03:19:07.076Z,88161.00
2023-06-10T03:20:07.073Z,88161.00
2023-06-10T03:21:07.077Z,88163.00
2023-06-10T03:22:07.104Z,88159.00
2023-06-10T03:23:07.147Z,88159.00
2023-06-10T03:24:07.236Z,88159.00
2023-06-10T03:25:07.592Z,88159.00
2023-06-10T03:26:07.263Z,88163.00
2023-06-10T03:27:07.310Z,88163.00
2023-06-10T03:28:07.363Z,88165.00
2023-06-10T03:29:07.385Z,88167.00
2023-06-10T03:30:07.450Z,88167.00
2023-06-10T03:31:07.498Z,88165.00
2023-06-10T03:32:07.569Z,88163.00
2023-06-10T03:33:07.627Z,88163.00
2023-06-10T03:34:07.626Z,88163.00
2023-06-10T03:35:08.041Z,88167.00
2023-06-10T03:36:07.718Z,88165.00
2023-06-10T03:37:07.771Z,88167.00
2023-06-10T03:38:07.831Z,88167.00
2023-06-10T03:39:07.888Z,88167.00
2023-06-10T03:40:07.951Z,88171.00
2023-06-10T03:41:08.009Z,88167.00
2023-06-10T03:42:08.076Z,88171.00
2023-06-10T03:43:08.125Z,88171.00
2023-06-10T03:44:08.179Z,88171.00
2023-06-10T03:45:08.750Z,88171.00
2023-06-10T03:46:08.301Z,88172.00
2023-06-10T03:47:08.334Z,88171.00
2023-06-10T03:48:08.484Z,88169.00
2023-06-10T03:49:08.459Z,88169.00
2023-06-10T03:50:08.504Z,88169.00
2023-06-10T03:51:08.566Z,88169.00
2023-06-10T03:52:08.598Z,88169.00
2023-06-10T03:53:08.662Z,88169.00
2023-06-10T03:54:08.767Z,88171.00
2023-06-10T03:55:08.989Z,88172.00
2023-06-10T03:56:08.848Z,88174.00
2023-06-10T03:57:08.895Z,88176.00
2023-06-10T03:58:08.984Z,88178.00
2023-06-10T03:59:09.034Z,88178.00
2023-06-10T04:00:09.097Z,88178.00
2023-06-10T04:01:09.137Z,88172.00
2023-06-10T04:02:09.184Z,88174.00
2023-06-10T04:03:09.226Z,88171.00
2023-06-10T04:04:09.119Z,88172.00
2023-06-10T04:05:09.338Z,88174.00
2023-06-10T04:06:09.138Z,88172.00
2023-06-10T04:07:09.103Z,88172.00
2023-06-10T04:08:09.095Z,88174.00
2023-06-10T04:09:09.116Z,88172.00
2023-06-10T04:10:09.091Z,88174.00
2023-06-10T04:11:09.090Z,88172.00
2023-06-10T04:12:09.076Z,88174.00
2023-06-10T04:13:09.075Z,88174.00
2023-06-10T04:14:09.107Z,88178.00
2023-06-10T04:15:09.352Z,88178.00
2023-06-10T04:16:09.057Z,88180.00
2023-06-10T04:17:09.100Z,88180.00
2023-06-10T04:18:09.075Z,88180.00
2023-06-10T04:19:09.037Z,88178.00
2023-06-10T04:20:09.063Z,88180.00
2023-06-10T04:21:09.035Z,88176.00
2023-06-10T04:22:09.026Z,88176.00
2023-06-10T04:23:09.048Z,88178.00
2023-06-10T04:24:09.108Z,88174.00
2023-06-10T04:25:09.271Z,88176.00
2023-06-10T04:26:09.058Z,88178.00
2023-06-10T04:27:09.066Z,88176.00
2023-06-10T04:28:09.067Z,88176.00
2023-06-10T04:29:09.068Z,88178.00
2023-06-10T04:30:09.086Z,88178.00
2023-06-10T04:31:09.195Z,88178.00
2023-06-10T04:32:09.114Z,88176.00
2023-06-10T04:33:09.230Z,88176.00
2023-06-10T04:34:09.146Z,88176.00
2023-06-10T04:35:09.308Z,88178.00
2023-06-10T04:36:09.168Z,88178.00
2023-06-10T04:37:09.177Z,88180.00
2023-06-10T04:38:09.178Z,88184.00
2023-06-10T04:39:09.164Z,88182.00
2023-06-10T04:40:09.156Z,88182.00
2023-06-10T04:41:09.169Z,88182.00
2023-06-10T04:42:09.122Z,88180.00
2023-06-10T04:43:09.132Z,88182.00
2023-06-10T04:44:09.102Z,88178.00
2023-06-10T04:45:09.459Z,88178.00
2023-06-10T04:46:09.456Z,88178.00
2023-06-10T04:47:09.064Z,88176.00
2023-06-10T04:48:09.107Z,88178.00
2023-06-10T04:49:09.040Z,88178.00
2023-06-10T04:50:09.037Z,88174.00
2023-06-10T04:51:09.028Z,88176.00
2023-06-10T04:52:09.023Z,88174.00
2023-06-10T04:53:09.018Z,88176.00
2023-06-10T04:54:09.045Z,88174.00
2023-06-10T04:55:09.234Z,88174.00
2023-06-10T04:56:09.081Z,88172.00
2023-06-10T04:57:09.077Z,88172.00
2023-06-10T04:58:09.012Z,88174.00
2023-06-10T04:59:09.023Z,88172.00
2023-06-10T05:00:09.073Z,88171.00
2023-06-10T05:01:09.014Z,88171.00
2023-06-10T05:02:09.095Z,88171.00
2023-06-10T05:03:09.089Z,88169.00
2023-06-10T05:04:09.153Z,88171.00
2023-06-10T05:05:09.340Z,88169.00
2023-06-10T05:06:09.103Z,88167.00
2023-06-10T05:07:09.303Z,88169.00
2023-06-10T05:08:09.328Z,88169.00
2023-06-10T05:09:09.168Z,88165.00
2023-06-10T05:10:09.269Z,88171.00
2023-06-10T05:11:09.303Z,88169.00
2023-06-10T05:12:09.313Z,88167.00
2023-06-10T05:13:09.272Z,88167.00
2023-06-10T05:14:09.279Z,88165.00
2023-06-10T05:15:09.682Z,88169.00
2023-06-10T05:16:09.372Z,88169.00
2023-06-10T05:17:09.365Z,88167.00
2023-06-10T05:18:09.474Z,88171.00
2023-06-10T05:19:09.408Z,88169.00
2023-06-10T05:20:09.447Z,88169.00
2023-06-10T05:21:09.462Z,88169.00
2023-06-10T05:22:09.555Z,88167.00
2023-06-10T05:23:09.512Z,88169.00
2023-06-10T05:24:09.585Z,88169.00
2023-06-10T05:25:09.950Z,88167.00
2023-06-10T05:26:09.595Z,88169.00
2023-06-10T05:27:09.633Z,88165.00
2023-06-10T05:28:09.660Z,88167.00
2023-06-10T05:29:09.679Z,88167.00
2023-06-10T05:30:09.703Z,88169.00
2023-06-10T05:31:09.751Z,88169.00
2023-06-10T05:32:09.921Z,88171.00
2023-06-10T05:33:09.892Z,88171.00
2023-06-10T05:34:09.812Z,88169.00
2023-06-10T05:35:10.057Z,88165.00
2023-06-10T05:36:09.911Z,88169.00
2023-06-10T05:37:09.979Z,88167.00
2023-06-10T05:38:10.064Z,88167.00
2023-06-10T05:39:09.937Z,88165.00
2023-06-10T05:40:09.965Z,88167.00
2023-06-10T05:41:09.999Z,88167.00
2023-06-10T05:42:10.039Z,88167.00
2023-06-10T05:43:10.074Z,88169.00
2023-06-10T05:44:11.921Z,88167.00
2023-06-10T05:45:10.337Z,88169.00
2023-06-10T05:46:10.258Z,88169.00
2023-06-10T05:47:10.073Z,88167.00
2023-06-10T05:48:10.126Z,88167.00
2023-06-10T05:49:10.046Z,88167.00
2023-06-10T05:50:10.041Z,88167.00
2023-06-10T05:51:10.036Z,88169.00
2023-06-10T05:52:10.054Z,88167.00
2023-06-10T05:53:10.064Z,88167.00
2023-06-10T05:54:10.041Z,88165.00
2023-06-10T05:55:10.429Z,88165.00
2023-06-10T05:56:10.041Z,88163.00
2023-06-10T05:57:10.057Z,88167.00
2023-06-10T05:58:10.029Z,88165.00
2023-06-10T05:59:09.993Z,88165.00
2023-06-10T06:00:10.003Z,88165.00
2023-06-10T06:01:10.003Z,88163.00
2023-06-10T06:02:10.020Z,88161.00
2023-06-10T06:03:10.155Z,88161.00
2023-06-10T06:04:10.027Z,88161.00
2023-06-10T06:05:10.351Z,88161.00
2023-06-10T06:06:09.964Z,88159.00
2023-06-10T06:07:09.949Z,88157.00
2023-06-10T06:08:09.951Z,88157.00
2023-06-10T06:09:09.940Z,88161.00
2023-06-10T06:10:09.957Z,88159.00
2023-06-10T06:11:09.939Z,88159.00
2023-06-10T06:12:09.944Z,88155.00
2023-06-10T06:13:09.936Z,88155.00
2023-06-10T06:14:09.906Z,88153.00
2023-06-10T06:15:10.089Z,88153.00
2023-06-10T06:16:09.902Z,88153.00
2023-06-10T06:17:09.856Z,88155.00
2023-06-10T06:18:09.903Z,88157.00
2023-06-10T06:19:09.842Z,88155.00
2023-06-10T06:20:09.854Z,88157.00
2023-06-10T06:21:09.832Z,88155.00
2023-06-10T06:22:09.818Z,88155.00
2023-06-10T06:23:09.811Z,88157.00
2023-06-10T06:24:09.866Z,88155.00
2023-06-10T06:25:10.280Z,88153.00
2023-06-10T06:26:09.780Z,88153.00
2023-06-10T06:27:09.771Z,88151.00
2023-06-10T06:28:09.800Z,88153.00
2023-06-10T06:29:09.746Z,88151.00
2023-06-10T06:30:09.748Z,88149.00
2023-06-10T06:31:09.772Z,88151.00
2023-06-10T06:32:09.712Z,88151.00
2023-06-10T06:33:09.754Z,88145.00
2023-06-10T06:34:09.684Z,88147.00
2023-06-10T06:35:10.099Z,88143.00
2023-06-10T06:36:09.651Z,88143.00
2023-06-10T06:37:09.629Z,88147.00
2023-06-10T06:38:09.638Z,88143.00
2023-06-10T06:39:09.635Z,88139.00
2023-06-10T06:40:09.610Z,88141.00
2023-06-10T06:41:09.594Z,88143.00
2023-06-10T06:42:09.606Z,88143.00
2023-06-10T06:43:09.580Z,88141.00
2023-06-10T06:44:09.618Z,88141.00
2023-06-10T06:45:09.766Z,88141.00
2023-06-10T06:46:09.552Z,88141.00
2023-06-10T06:47:09.558Z,88143.00
2023-06-10T06:48:09.673Z,88139.00
2023-06-10T06:49:09.520Z,88139.00
2023-06-10T06:50:09.514Z,88139.00
2023-06-10T06:51:09.534Z,88139.00
2023-06-10T06:52:09.494Z,88137.00
2023-06-10T06:53:09.503Z,88139.00
2023-06-10T06:54:09.484Z,88135.00
2023-06-10T06:55:09.810Z,88135.00
2023-06-10T06:56:09.474Z,88135.00
2023-06-10T06:57:09.461Z,88133.00
2023-06-10T06:58:09.462Z,88133.00
2023-06-10T06:59:09.458Z,88133.00
2023-06-10T07:00:09.431Z,88131.00
2023-06-10T07:01:09.518Z,88131.00
2023-06-10T07:02:09.430Z,88129.00
2023-06-10T07:03:09.528Z,88129.00
2023-06-10T07:04:09.418Z,88129.00
2023-06-10T07:05:09.712Z,88131.00
2023-06-10T07:06:09.371Z,88133.00
2023-06-10T07:07:09.365Z,88131.00
2023-06-10T07:08:09.363Z,88129.00
2023-06-10T07:09:09.356Z,88129.00
2023-06-10T07:10:09.357Z,88129.00
2023-06-10T07:11:09.334Z,88127.00
2023-06-10T07:12:09.340Z,88129.00
2023-06-10T07:13:09.326Z,88127.00
2023-06-10T07:14:09.305Z,88125.00
2023-06-10T07:15:09.644Z,88127.00
2023-06-10T07:16:09.287Z,88125.00
2023-06-10T07:17:09.449Z,88125.00
2023-06-10T07:18:09.362Z,88125.00
2023-06-10T07:19:09.282Z,88127.00
2023-06-10T07:20:09.285Z,88125.00
2023-06-10T07:21:09.273Z,88127.00
2023-06-10T07:22:09.250Z,88125.00
2023-06-10T07:23:09.256Z,88125.00
2023-06-10T07:24:09.250Z,88129.00
2023-06-10T07:25:09.543Z,88129.00
2023-06-10T07:26:09.214Z,88125.00
2023-06-10T07:27:09.199Z,88127.00
2023-06-10T07:28:09.200Z,88123.00
2023-06-10T07:29:09.185Z,88121.00
2023-06-10T07:30:09.163Z,88121.00
2023-06-10T07:31:09.222Z,88121.00
2023-06-10T07:32:09.156Z,88123.00
2023-06-10T07:33:09.244Z,88120.00
2023-06-10T07:34:09.178Z,88120.00
2023-06-10T07:35:09.475Z,88116.00
2023-06-10T07:36:09.126Z,88118.00
2023-06-10T07:37:09.158Z,88118.00
2023-06-10T07:38:09.195Z,88120.00
2023-06-10T07:39:09.246Z,88120.00
2023-06-10T07:40:09.286Z,88121.00
2023-06-10T07:41:09.337Z,88120.00
2023-06-10T07:42:09.367Z,88120.00
2023-06-10T07:43:09.421Z,88121.00
2023-06-10T07:44:09.449Z,88118.00
2023-06-10T07:45:09.623Z,88121.00
2023-06-10T07:46:09.565Z,88118.00
2023-06-10T07:47:09.605Z,88120.00
2023-06-10T07:48:09.690Z,88120.00
2023-06-10T07:49:09.704Z,88118.00
2023-06-10T07:50:09.767Z,88116.00
2023-06-10T07:51:09.823Z,88118.00
2023-06-10T07:52:09.882Z,88116.00
2023-06-10T07:53:09.966Z,88114.00
2023-06-10T07:54:10.002Z,88114.00
2023-06-10T07:55:10.166Z,88114.00
2023-06-10T07:56:10.127Z,88114.00
2023-06-10T07:57:10.170Z,88112.00
2023-06-10T07:58:10.162Z,88110.00
2023-06-10T07:59:10.130Z,88106.00
2023-06-10T08:00:10.138Z,88108.00
2023-06-10T08:01:10.107Z,88106.00
2023-06-10T08:02:10.086Z,88106.00
2023-06-10T08:03:10.176Z,88102.00
2023-06-10T08:04:10.171Z,88104.00
2023-06-10T08:05:10.320Z,88102.00
2023-06-10T08:06:10.031Z,88102.00
2023-06-10T08:07:10.068Z,88102.00
2023-06-10T08:08:10.121Z,88102.00
2023-06-10T08:09:10.168Z,88098.00
2023-06-10T08:10:10.234Z,88102.00
2023-06-10T08:11:10.259Z,88100.00
2023-06-10T08:12:10.304Z,88102.00
2023-06-10T08:13:10.349Z,88102.00
2023-06-10T08:14:10.410Z,88100.00
2023-06-10T08:15:10.804Z,88100.00
2023-06-10T08:16:10.500Z,88098.00
2023-06-10T08:17:10.512Z,88098.00
2023-06-10T08:18:10.645Z,88096.00
2023-06-10T08:19:10.613Z,88098.00
2023-06-10T08:20:10.620Z,88098.00
2023-06-10T08:21:10.656Z,88100.00
2023-06-10T08:22:10.693Z,88100.00
2023-06-10T08:23:10.742Z,88096.00
2023-06-10T08:24:10.875Z,88096.00
2023-06-10T08:25:11.148Z,88096.00
2023-06-10T08:26:10.851Z,88096.00
2023-06-10T08:27:10.876Z,88098.00
2023-06-10T08:28:10.928Z,88096.00
2023-06-10T08:29:10.938Z,88098.00
2023-06-10T08:30:10.983Z,88094.00
2023-06-10T08:31:11.005Z,88094.00
2023-06-10T08:32:11.082Z,88094.00
2023-06-10T08:33:11.141Z,88094.00
2023-06-10T08:34:11.028Z,88094.00
2023-06-10T08:35:11.222Z,88092.00
2023-06-10T08:36:11.002Z,88092.00
2023-06-10T08:37:10.981Z,88094.00
2023-06-10T08:38:10.966Z,88094.00
2023-06-10T08:39:10.941Z,88088.00
2023-06-10T08:40:10.920Z,88088.00
2023-06-10T08:41:10.918Z,88090.00
2023-06-10T08:42:10.922Z,88092.00
2023-06-10T08:43:10.901Z,88086.00
2023-06-10T08:44:10.850Z,88088.00
2023-06-10T08:45:11.128Z,88088.00
2023-06-10T08:46:10.818Z,88086.00
2023-06-10T08:47:10.804Z,88084.00
2023-06-10T08:48:10.875Z,88086.00
2023-06-10T08:49:10.839Z,88086.00
2023-06-10T08:50:12.711Z,88082.00
2023-06-10T08:51:10.739Z,88082.00
2023-06-10T08:52:10.728Z,88082.00
2023-06-10T08:53:10.727Z,88080.00
2023-06-10T08:54:10.698Z,88082.00
2023-06-10T08:55:10.920Z,88080.00
2023-06-10T08:56:10.679Z,88082.00
2023-06-10T08:57:10.666Z,88082.00
2023-06-10T08:58:10.637Z,88080.00
2023-06-10T08:59:10.677Z,88080.00
2023-06-10T09:00:10.887Z,88082.00
2023-06-10T09:01:10.782Z,88082.00
2023-06-10T09:02:10.710Z,88082.00
2023-06-10T09:03:10.776Z,88080.00
2023-06-10T09:04:10.723Z,88082.00
2023-06-10T09:05:10.654Z,88080.00
2023-06-10T09:06:10.645Z,88082.00
2023-06-10T09:07:10.600Z,88080.00
2023-06-10T09:08:10.589Z,88080.00
2023-06-10T09:09:10.572Z,88080.00
2023-06-10T09:10:10.767Z,88080.00
2023-06-10T09:11:10.558Z,88084.00
2023-06-10T09:12:10.562Z,88084.00
2023-06-10T09:13:10.529Z,88078.00
2023-06-10T09:14:10.509Z,88078.00
2023-06-10T09:15:10.498Z,88078.00
2023-06-10T09:16:10.520Z,88078.00
2023-06-10T09:17:10.508Z,88078.00
2023-06-10T09:18:10.613Z,88076.00
2023-06-10T09:19:10.569Z,88078.00
2023-06-10T09:20:11.232Z,88076.00
2023-06-10T09:21:10.538Z,88076.00
2023-06-10T09:22:10.573Z,88080.00
2023-06-10T09:23:10.576Z,88074.00
2023-06-10T09:24:10.582Z,88080.00
2023-06-10T09:25:10.507Z,88078.00
2023-06-10T09:26:10.835Z,88082.00
2023-06-10T09:27:10.529Z,88080.00
2023-06-10T09:28:10.457Z,88080.00
2023-06-10T09:29:10.586Z,88084.00
2023-06-10T09:30:10.591Z,88080.00
2023-06-10T09:31:10.453Z,88080.00
2023-06-10T09:32:10.778Z,88082.00
2023-06-10T09:33:10.436Z,88080.00
2023-06-10T09:34:10.326Z,88080.00
2023-06-10T09:35:10.284Z,88084.00
2023-06-10T09:36:10.308Z,88080.00
2023-06-10T09:37:10.299Z,88086.00
2023-06-10T09:38:10.920Z,88086.00
2023-06-10T09:39:10.228Z,88086.00
2023-06-10T09:40:10.583Z,88090.00
2023-06-10T09:41:10.175Z,88090.00
2023-06-10T09:42:10.222Z,88098.00
2023-06-10T09:43:10.161Z,88096.00
2023-06-10T09:44:10.340Z,88094.00
2023-06-10T09:45:10.108Z,88094.00
2023-06-10T09:46:10.121Z,88096.00
2023-06-10T09:47:10.073Z,88096.00
2023-06-10T09:48:10.108Z,88096.00
2023-06-10T09:49:10.054Z,88098.00
2023-06-10T09:50:11.413Z,88102.00
2023-06-10T09:51:10.091Z,88100.00
2023-06-10T09:52:10.035Z,88102.00
2023-06-10T09:53:10.001Z,88102.00
2023-06-10T09:54:09.952Z,88104.00
2023-06-10T09:55:09.943Z,88100.00
2023-06-10T09:56:11.086Z,88098.00
2023-06-10T09:57:09.956Z,88098.00
2023-06-10T09:58:09.962Z,88098.00
2023-06-10T09:59:09.864Z,88096.00
2023-06-10T10:00:10.193Z,88100.00
2023-06-10T10:01:09.844Z,88100.00
2023-06-10T10:02:11.349Z,88098.00
2023-06-10T10:03:09.833Z,88098.00
2023-06-10T10:04:09.796Z,88096.00
2023-06-10T10:05:10.051Z,88096.00
2023-06-10T10:06:09.786Z,88098.00
2023-06-10T10:07:09.750Z,88094.00
2023-06-10T10:08:09.734Z,88092.00
2023-06-10T10:09:09.792Z,88096.00
2023-06-10T10:10:09.715Z,88092.00
2023-06-10T10:11:09.713Z,88092.00
2023-06-10T10:12:09.705Z,88096.00
2023-06-10T10:13:09.747Z,88094.00
2023-06-10T10:14:10.878Z,88094.00
2023-06-10T10:15:10.029Z,88094.00
2023-06-10T10:16:09.762Z,88094.00
2023-06-10T10:17:09.863Z,88094.00
2023-06-10T10:18:10.104Z,88096.00
2023-06-10T10:19:09.698Z,88092.00
2023-06-10T10:20:09.673Z,88094.00
2023-06-10T10:21:09.649Z,88094.00
2023-06-10T10:22:09.622Z,88094.00
2023-06-10T10:23:09.626Z,88092.00
2023-06-10T10:24:09.605Z,88094.00
2023-06-10T10:25:09.902Z,88094.00
2023-06-10T10:26:10.871Z,88094.00
2023-06-10T10:27:09.597Z,88092.00
2023-06-10T10:28:09.546Z,88096.00
2023-06-10T10:29:09.513Z,88094.00
2023-06-10T10:30:09.592Z,88092.00
2023-06-10T10:31:09.518Z,88090.00
2023-06-10T10:32:09.676Z,88092.00
2023-06-10T10:33:11.054Z,88088.00
2023-06-10T10:34:09.779Z,88086.00
2023-06-10T10:35:09.918Z,88096.00
2023-06-10T10:36:09.625Z,88094.00
2023-06-10T10:37:09.678Z,88094.00
2023-06-10T10:38:09.586Z,88094.00
2023-06-10T10:39:09.565Z,88090.00
2023-06-10T10:40:09.566Z,88090.00
2023-06-10T10:41:09.534Z,88092.00
2023-06-10T10:42:09.622Z,88090.00
2023-06-10T10:43:09.512Z,88092.00
2023-06-10T10:44:09.497Z,88090.00
2023-06-10T10:45:09.738Z,88088.00
2023-06-10T10:46:09.473Z,88084.00
2023-06-10T10:47:09.430Z,88088.00
2023-06-10T10:48:09.458Z,88084.00
2023-06-10T10:49:09.432Z,88084.00
2023-06-10T10:50:10.039Z,88084.00
2023-06-10T10:51:09.372Z,88084.00
2023-06-10T10:52:09.357Z,88084.00
2023-06-10T10:53:09.362Z,88080.00
2023-06-10T10:54:09.304Z,88080.00
2023-06-10T10:55:09.525Z,88078.00
2023-06-10T10:56:09.844Z,88076.00
2023-06-10T10:57:09.604Z,88078.00
2023-06-10T10:58:09.501Z,88074.00
2023-06-10T10:59:09.512Z,88074.00
2023-06-10T11:00:09.655Z,88074.00
2023-06-10T11:01:09.613Z,88072.00
2023-06-10T11:02:09.798Z,88072.00
2023-06-10T11:03:11.485Z,88070.00
2023-06-10T11:04:09.897Z,88076.00
2023-06-10T11:05:10.055Z,88076.00
2023-06-10T11:06:09.823Z,88074.00
2023-06-10T11:07:09.882Z,88070.00
2023-06-10T11:08:09.926Z,88072.00
2023-06-10T11:09:10.044Z,88070.00
2023-06-10T11:10:10.038Z,88074.00
2023-06-10T11:11:10.053Z,88070.00
2023-06-10T11:12:10.108Z,88072.00
2023-06-10T11:13:10.178Z,88070.00
2023-06-10T11:14:10.218Z,88070.00
2023-06-10T11:15:10.598Z,88066.00
2023-06-10T11:16:10.312Z,88066.00
2023-06-10T11:17:10.341Z,88066.00
2023-06-10T11:18:10.404Z,88066.00
2023-06-10T11:19:10.592Z,88066.00
2023-06-10T11:20:10.393Z,88065.00
2023-06-10T11:21:10.397Z,88063.00
2023-06-10T11:22:10.344Z,88063.00
2023-06-10T11:23:10.398Z,88065.00
2023-06-10T11:24:10.419Z,88059.00
2023-06-10T11:25:10.553Z,88059.00
2023-06-10T11:26:10.254Z,88053.00
2023-06-10T11:27:10.242Z,88051.00
2023-06-10T11:28:10.361Z,88053.00
2023-06-10T11:29:10.344Z,88049.00
2023-06-10T11:30:10.354Z,88053.00
2023-06-10T11:31:10.415Z,88053.00
2023-06-10T11:32:10.578Z,88053.00
2023-06-10T11:33:10.506Z,88051.00
2023-06-10T11:34:10.501Z,88055.00
2023-06-10T11:35:10.734Z,88051.00
2023-06-10T11:36:10.594Z,88053.00
2023-06-10T11:37:10.633Z,88051.00
2023-06-10T11:38:10.692Z,88051.00
2023-06-10T11:39:10.746Z,88053.00
2023-06-10T11:40:10.776Z,88055.00
2023-06-10T11:41:10.802Z,88051.00
2023-06-10T11:42:10.855Z,88049.00
2023-06-10T11:43:10.881Z,88047.00
2023-06-10T11:44:10.916Z,88049.00